createdAt,value
2018-08-11T00:00:50.860Z,18.72
2018-08-11T00:03:19.515Z,18.68
2018-08-11T00:05:48.396Z,18.71
2018-08-11T00:08:17.107Z,18.70
2018-08-11T00:10:45.893Z,18.70
2018-08-11T00:13:14.655Z,18.52
2018-08-11T00:15:43.323Z,18.50
2018-08-11T00:18:12.024Z,18.54
2018-08-11T00:20:40.809Z,18.46
2018-08-11T00:23:09.452Z,18.37
2018-08-11T00:25:38.172Z,18.32
2018-08-11T00:28:07.296Z,18.32
2018-08-11T00:30:35.993Z,18.34
2018-08-11T00:33:05.063Z,18.34
2018-08-11T00:35:33.743Z,18.40
2018-08-11T00:38:02.443Z,18.38
2018-08-11T00:40:31.071Z,18.34
2018-08-11T00:42:59.964Z,18.41
2018-08-11T00:45:28.547Z,18.46
2018-08-11T00:47:57.580Z,18.49
2018-08-11T00:50:30.632Z,18.47
2018-08-11T00:52:59.225Z,18.47
2018-08-11T00:55:27.912Z,18.44
2018-08-11T00:57:56.745Z,18.50
2018-08-11T01:00:25.512Z,18.49
2018-08-11T01:02:54.230Z,18.48
2018-08-11T01:05:22.903Z,18.47
2018-08-11T01:07:52.279Z,18.46
2018-08-11T01:10:20.947Z,18.44
2018-08-11T01:12:50.131Z,18.44
2018-08-11T01:15:20.524Z,18.56
2018-08-11T01:17:50.117Z,18.60
2018-08-11T01:20:19.207Z,18.66
2018-08-11T01:22:48.489Z,18.59
2018-08-11T01:25:17.543Z,18.64
2018-08-11T01:27:46.208Z,18.63
2018-08-11T01:30:16.463Z,18.64
2018-08-11T01:32:45.198Z,18.66
2018-08-11T01:35:14.028Z,18.57
2018-08-11T01:37:43.570Z,18.61
2018-08-11T01:40:13.401Z,18.61
2018-08-11T01:42:43.399Z,18.66
2018-08-11T01:45:12.723Z,18.67
2018-08-11T01:47:41.900Z,18.74
2018-08-11T01:50:11.797Z,18.67
2018-08-11T01:52:42.044Z,18.72
2018-08-11T01:55:12.267Z,18.71
2018-08-11T01:57:41.297Z,18.60
2018-08-11T02:00:11.888Z,18.59
2018-08-11T02:02:41.079Z,18.62
2018-08-11T02:05:10.899Z,18.58
2018-08-11T02:07:40.895Z,18.57
2018-08-11T02:10:13.988Z,18.51
2018-08-11T02:12:42.663Z,18.61
2018-08-11T02:15:12.807Z,18.55
2018-08-11T02:17:41.503Z,18.53
2018-08-11T02:20:13.023Z,18.50
2018-08-11T02:22:42.696Z,18.54
2018-08-11T02:25:11.434Z,18.67
2018-08-11T02:27:40.422Z,18.67
2018-08-11T02:30:11.283Z,18.76
2018-08-11T02:32:40.360Z,18.80
2018-08-11T02:35:09.863Z,18.73
2018-08-11T02:37:39.095Z,18.72
2018-08-11T02:40:09.491Z,18.52
2018-08-11T02:42:38.244Z,18.41
2018-08-11T02:45:07.656Z,18.31
2018-08-11T02:47:36.254Z,18.28
2018-08-11T02:50:06.705Z,18.23
2018-08-11T02:52:35.364Z,18.19
2018-08-11T02:55:04.160Z,18.10
2018-08-11T02:57:32.980Z,18.09
2018-08-11T03:00:01.516Z,18.06
2018-08-11T03:02:30.124Z,18.04
2018-08-11T03:04:58.947Z,17.99
2018-08-11T03:07:27.571Z,17.93
2018-08-11T03:09:56.166Z,17.90
2018-08-11T03:12:24.932Z,17.87
2018-08-11T03:14:53.635Z,17.81
2018-08-11T03:17:22.216Z,17.78
2018-08-11T03:19:50.965Z,17.72
2018-08-11T03:22:19.615Z,17.66
2018-08-11T03:24:48.275Z,17.72
2018-08-11T03:27:17.307Z,17.66
2018-08-11T03:29:46.387Z,17.64
2018-08-11T03:32:15.156Z,17.48
2018-08-11T03:34:44.188Z,17.42
2018-08-11T03:37:12.840Z,17.44
2018-08-11T03:39:41.411Z,17.36
2018-08-11T03:42:10.270Z,17.11
2018-08-11T03:44:38.831Z,17.16
2018-08-11T03:47:07.531Z,17.04
2018-08-11T03:49:36.622Z,16.96
2018-08-11T03:52:05.406Z,16.99
2018-08-11T03:54:34.039Z,16.98
2018-08-11T03:57:02.998Z,17.05
2018-08-11T03:59:31.607Z,16.99
2018-08-11T04:02:00.188Z,16.94
2018-08-11T04:04:29.140Z,16.98
2018-08-11T04:06:57.837Z,16.80
2018-08-11T04:09:26.659Z,16.85
2018-08-11T04:11:55.275Z,16.77
2018-08-11T04:14:23.847Z,16.85
2018-08-11T04:16:52.788Z,16.78
2018-08-11T04:19:21.500Z,16.78
2018-08-11T04:21:50.084Z,16.77
2018-08-11T04:24:18.671Z,16.85
2018-08-11T04:26:47.619Z,16.91
2018-08-11T04:29:16.157Z,16.80
2018-08-11T04:31:44.720Z,16.89
2018-08-11T04:34:13.468Z,16.96
2018-08-11T04:36:42.108Z,17.06
2018-08-11T04:39:10.635Z,17.03
2018-08-11T04:41:39.931Z,17.09
2018-08-11T04:44:08.571Z,17.20
2018-08-11T04:46:37.152Z,17.23
2018-08-11T04:49:05.827Z,17.39
2018-08-11T04:51:34.416Z,17.37
2018-08-11T04:54:03.103Z,17.44
2018-08-11T04:56:31.955Z,17.50
2018-08-11T04:59:00.584Z,17.65
2018-08-11T05:01:29.173Z,17.74
2018-08-11T05:03:58.004Z,17.89
2018-08-11T05:06:26.699Z,18.04
2018-08-11T05:08:55.357Z,18.17
2018-08-11T05:11:24.071Z,18.19
2018-08-11T05:13:52.833Z,18.37
2018-08-11T05:16:21.375Z,18.32
2018-08-11T05:18:50.123Z,18.34
2018-08-11T05:21:18.788Z,18.51
2018-08-11T05:23:47.340Z,18.44
2018-08-11T05:26:15.974Z,18.44
2018-08-11T05:28:44.675Z,18.59
2018-08-11T05:31:13.288Z,18.50
2018-08-11T05:33:41.940Z,18.47
2018-08-11T05:36:10.560Z,18.58
2018-08-11T05:38:39.163Z,18.64
2018-08-11T05:41:07.982Z,18.44
2018-08-11T05:43:36.682Z,18.86
2018-08-11T05:46:05.447Z,18.79
2018-08-11T05:48:34.159Z,18.87
2018-08-11T05:51:02.786Z,18.74
2018-08-11T05:53:31.360Z,19.00
2018-08-11T05:56:00.287Z,19.00
2018-08-11T05:58:29.055Z,19.09
2018-08-11T06:00:57.632Z,19.28
2018-08-11T06:03:26.435Z,19.38
2018-08-11T06:05:55.064Z,19.39
2018-08-11T06:08:23.717Z,19.43
2018-08-11T06:10:52.321Z,19.54
2018-08-11T06:13:20.975Z,19.80
2018-08-11T06:15:49.699Z,19.82
2018-08-11T06:18:18.346Z,19.79
2018-08-11T06:20:47.007Z,19.66
2018-08-11T06:23:15.652Z,19.47
2018-08-11T06:25:44.315Z,19.51
2018-08-11T06:28:12.967Z,19.59
2018-08-11T06:30:41.663Z,19.93
2018-08-11T06:33:10.505Z,20.22
2018-08-11T06:35:41.226Z,20.31
2018-08-11T06:38:10.262Z,20.44
2018-08-11T06:40:42.667Z,20.35
2018-08-11T06:43:15.241Z,20.49
2018-08-11T06:45:45.687Z,20.63
2018-08-11T06:48:18.336Z,20.66
2018-08-11T06:50:48.389Z,20.86
2018-08-11T06:53:21.151Z,21.52
2018-08-11T06:55:52.143Z,21.40
2018-08-11T06:58:24.261Z,21.83
2018-08-11T07:00:56.865Z,22.22
2018-08-11T07:03:30.231Z,22.71
2018-08-11T07:06:00.254Z,22.97
2018-08-11T07:08:33.168Z,22.55
2018-08-11T07:11:05.773Z,23.46
2018-08-11T07:13:37.298Z,24.50
2018-08-11T07:16:08.449Z,24.40
2018-08-11T07:18:42.360Z,24.94
2018-08-11T07:21:14.525Z,25.64
2018-08-11T07:23:43.424Z,25.59
2018-08-11T07:26:15.680Z,25.94
2018-08-11T07:28:48.695Z,25.40
2018-08-11T07:31:19.956Z,25.41
2018-08-11T07:33:50.804Z,25.30
2018-08-11T07:36:23.157Z,25.21
2018-08-11T07:38:54.860Z,24.70
2018-08-11T07:41:24.876Z,24.98
2018-08-11T07:43:57.339Z,25.39
2018-08-11T07:46:28.882Z,25.33
2018-08-11T07:49:02.324Z,25.88
2018-08-11T07:51:34.083Z,25.64
2018-08-11T07:54:04.716Z,25.34
2018-08-11T07:56:35.734Z,25.06
2018-08-11T07:59:08.187Z,25.10
2018-08-11T08:01:40.029Z,25.47
2018-08-11T08:04:12.154Z,25.94
2018-08-11T08:06:40.892Z,25.35
2018-08-11T08:09:15.675Z,25.99
2018-08-11T08:11:47.544Z,26.59
2018-08-11T08:14:18.234Z,26.73
2018-08-11T08:16:48.597Z,26.49
2018-08-11T08:19:20.380Z,26.77
2018-08-11T08:21:50.212Z,26.55
2018-08-11T08:24:22.830Z,27.02
2018-08-11T08:26:55.707Z,27.47
2018-08-11T08:29:27.700Z,27.65
2018-08-11T08:32:00.465Z,27.82
2018-08-11T08:34:32.148Z,27.82
2018-08-11T08:37:05.359Z,27.84
2018-08-11T08:39:38.056Z,27.71
2018-08-11T08:42:08.461Z,28.16
2018-08-11T08:44:41.836Z,28.46
2018-08-11T08:47:15.274Z,29.27
2018-08-11T08:49:44.286Z,30.49
2018-08-11T08:52:17.409Z,31.00
2018-08-11T08:54:49.354Z,31.36
2018-08-11T08:57:20.046Z,31.86
2018-08-11T08:59:52.264Z,31.29
2018-08-11T09:02:24.949Z,31.52
2018-08-11T09:04:56.062Z,30.56
2018-08-11T09:07:29.271Z,30.27
2018-08-11T09:10:02.513Z,31.24
2018-08-11T09:12:34.124Z,31.46
2018-08-11T09:15:06.873Z,31.75
2018-08-11T09:17:38.428Z,32.03
2018-08-11T09:20:12.314Z,32.94
2018-08-11T09:22:48.353Z,34.40
2018-08-11T09:25:21.010Z,33.15
2018-08-11T09:27:55.054Z,33.56
2018-08-11T09:30:31.493Z,33.03
2018-08-11T09:33:07.187Z,31.59
2018-08-11T09:35:40.895Z,31.64
2018-08-11T09:38:21.685Z,31.57
2018-08-11T09:40:51.432Z,32.75
2018-08-11T09:43:20.731Z,32.69
2018-08-11T09:45:50.358Z,29.92
2018-08-11T09:48:19.091Z,29.38
2018-08-11T09:50:48.167Z,31.16
2018-08-11T09:53:18.457Z,32.71
2018-08-11T09:55:47.168Z,31.73
2018-08-11T09:58:16.096Z,31.21
2018-08-11T10:00:53.912Z,30.57
2018-08-11T10:03:22.971Z,31.99
2018-08-11T10:05:51.684Z,31.26
2018-08-11T10:08:22.323Z,29.99
2018-08-11T10:10:50.955Z,29.74
2018-08-11T10:13:19.691Z,29.54
2018-08-11T10:15:48.879Z,32.85
2018-08-11T10:18:20.687Z,34.15
2018-08-11T10:20:49.583Z,35.17
2018-08-11T10:23:18.147Z,35.74
2018-08-11T10:25:46.851Z,36.56
2018-08-11T10:28:15.995Z,34.81
2018-08-11T10:30:44.652Z,35.64
2018-08-11T10:33:13.309Z,36.92
2018-08-11T10:35:42.048Z,38.42
2018-08-11T10:38:11.258Z,38.54
2018-08-11T10:40:39.952Z,37.59
2018-08-11T10:43:09.723Z,38.98
2018-08-11T10:45:38.513Z,38.39
2018-08-11T10:48:07.244Z,39.41
2018-08-11T10:50:35.867Z,39.93
2018-08-11T10:53:04.550Z,40.13
2018-08-11T10:55:33.220Z,38.94
2018-08-11T10:58:02.004Z,38.51
2018-08-11T11:00:31.028Z,36.66
2018-08-11T11:03:03.323Z,34.35
2018-08-11T11:05:31.855Z,35.63
2018-08-11T11:08:00.507Z,36.55
2018-08-11T11:10:29.179Z,33.97
2018-08-11T11:12:57.852Z,31.99
2018-08-11T11:15:26.504Z,32.02
2018-08-11T11:17:55.099Z,32.20
2018-08-11T11:20:23.938Z,30.75
2018-08-11T11:22:52.569Z,29.62
2018-08-11T11:25:21.241Z,30.81
2018-08-11T11:27:49.799Z,33.77
2018-08-11T11:30:18.438Z,32.61
2018-08-11T11:32:47.088Z,33.60
2018-08-11T11:35:15.744Z,32.82
2018-08-11T11:37:44.315Z,32.41
2018-08-11T11:40:13.304Z,33.44
2018-08-11T11:42:42.014Z,34.23
2018-08-11T11:45:10.683Z,36.78
2018-08-11T11:47:39.559Z,38.47
2018-08-11T11:50:08.395Z,40.07
2018-08-11T11:52:37.119Z,36.60
2018-08-11T11:55:06.239Z,34.19
2018-08-11T11:57:34.862Z,32.65
2018-08-11T12:00:03.605Z,31.46
2018-08-11T12:02:32.172Z,32.15
2018-08-11T12:05:00.884Z,35.37
2018-08-11T12:07:29.708Z,37.80
2018-08-11T12:09:58.656Z,37.56
2018-08-11T12:12:28.042Z,35.82
2018-08-11T12:14:56.708Z,33.72
2018-08-11T12:17:25.414Z,32.69
2018-08-11T12:19:54.131Z,33.83
2018-08-11T12:22:22.868Z,31.99
2018-08-11T12:24:52.785Z,30.92
2018-08-11T12:27:21.366Z,33.73
2018-08-11T12:29:50.046Z,36.11
2018-08-11T12:32:18.988Z,36.42
2018-08-11T12:34:47.684Z,34.10
2018-08-11T12:37:16.327Z,33.57
2018-08-11T12:39:45.084Z,34.59
2018-08-11T12:42:13.667Z,37.02
2018-08-11T12:44:42.483Z,35.37
2018-08-11T12:47:11.751Z,37.20
2018-08-11T12:49:40.425Z,37.13
2018-08-11T12:52:09.243Z,36.69
2018-08-11T12:54:37.870Z,35.61
2018-08-11T12:57:06.532Z,36.60
2018-08-11T12:59:35.454Z,36.90
2018-08-11T13:02:04.103Z,38.09
2018-08-11T13:04:32.832Z,38.43
2018-08-11T13:07:01.679Z,40.78
2018-08-11T13:09:30.264Z,38.18
2018-08-11T13:11:58.896Z,36.08
2018-08-11T13:14:27.571Z,37.39
2018-08-11T13:16:56.449Z,38.90
2018-08-11T13:19:25.726Z,39.64
2018-08-11T13:21:54.457Z,39.37
2018-08-11T13:24:23.529Z,36.93
2018-08-11T13:26:52.168Z,38.87
2018-08-11T13:29:20.900Z,38.63
2018-08-11T13:31:49.796Z,39.03
2018-08-11T13:34:18.489Z,39.14
2018-08-11T13:36:48.444Z,39.83
2018-08-11T13:39:17.287Z,38.01
2018-08-11T13:41:47.707Z,36.33
2018-08-11T13:44:17.530Z,37.15
2018-08-11T13:46:46.391Z,36.61
2018-08-11T13:49:15.298Z,34.74
2018-08-11T13:51:44.115Z,35.52
2018-08-11T13:54:12.933Z,35.47
2018-08-11T13:56:41.904Z,36.54
2018-08-11T13:59:10.772Z,37.10
2018-08-11T14:01:39.475Z,38.37
2018-08-11T14:04:08.673Z,37.71
2018-08-11T14:06:37.531Z,37.58
2018-08-11T14:09:07.903Z,37.80
2018-08-11T14:11:36.663Z,36.29
2018-08-11T14:14:05.624Z,35.86
2018-08-11T14:16:34.292Z,36.58
2018-08-11T14:19:03.004Z,38.41
2018-08-11T14:21:31.968Z,37.98
2018-08-11T14:24:00.551Z,35.75
2018-08-11T14:26:29.488Z,36.09
2018-08-11T14:28:58.128Z,36.71
2018-08-11T14:31:26.699Z,36.73
2018-08-11T14:33:55.268Z,36.26
2018-08-11T14:36:23.972Z,37.27
2018-08-11T14:38:52.720Z,36.85
2018-08-11T14:41:21.583Z,35.18
2018-08-11T14:43:50.144Z,33.07
2018-08-11T14:46:18.743Z,34.04
2018-08-11T14:48:47.639Z,34.92
2018-08-11T14:51:16.356Z,35.82
2018-08-11T14:53:44.995Z,35.54
2018-08-11T14:56:13.812Z,34.37
2018-08-11T14:58:42.522Z,34.70
2018-08-11T15:01:11.163Z,35.82
2018-08-11T15:03:40.104Z,36.07
2018-08-11T15:06:08.655Z,35.48
2018-08-11T15:08:37.412Z,35.75
2018-08-11T15:11:06.033Z,36.45
2018-08-11T15:13:34.684Z,35.54
2018-08-11T15:16:03.401Z,34.65
2018-08-11T15:18:32.192Z,33.32
2018-08-11T15:21:00.856Z,33.19
2018-08-11T15:23:29.589Z,32.62
2018-08-11T15:25:58.332Z,31.26
2018-08-11T15:28:27.012Z,30.44
2018-08-11T15:30:55.895Z,29.71
2018-08-11T15:33:24.749Z,29.80
2018-08-11T15:35:53.423Z,29.72
2018-08-11T15:38:22.117Z,30.01
2018-08-11T15:40:50.975Z,29.70
2018-08-11T15:43:19.587Z,29.47
2018-08-11T15:45:48.323Z,29.25
2018-08-11T15:48:16.927Z,29.08
2018-08-11T15:50:45.775Z,28.90
2018-08-11T15:53:14.542Z,28.45
2018-08-11T15:55:43.408Z,28.51
2018-08-11T15:58:12.110Z,28.46
2018-08-11T16:00:40.784Z,28.52
2018-08-11T16:03:09.598Z,28.85
2018-08-11T16:05:38.210Z,28.91
2018-08-11T16:08:06.975Z,28.56
2018-08-11T16:10:35.831Z,28.29
2018-08-11T16:13:04.508Z,28.43
2018-08-11T16:15:33.386Z,28.54
2018-08-11T16:18:02.576Z,28.37
2018-08-11T16:20:31.171Z,28.22
2018-08-11T16:22:59.867Z,28.31
2018-08-11T16:25:28.654Z,27.89
2018-08-11T16:27:57.567Z,27.51
2018-08-11T16:30:26.211Z,27.37
2018-08-11T16:32:55.120Z,27.44
2018-08-11T16:35:23.655Z,27.09
2018-08-11T16:37:52.252Z,26.95
2018-08-11T16:40:21.132Z,27.02
2018-08-11T16:42:49.812Z,26.89
2018-08-11T16:45:18.556Z,26.95
2018-08-11T16:47:47.360Z,26.97
2018-08-11T16:50:15.895Z,26.80
2018-08-11T16:52:44.565Z,26.69
2018-08-11T16:55:13.499Z,26.69
2018-08-11T16:57:42.417Z,26.57
2018-08-11T17:00:12.926Z,26.53
2018-08-11T17:02:42.103Z,26.37
2018-08-11T17:05:10.779Z,25.88
2018-08-11T17:07:39.508Z,25.95
2018-08-11T17:10:09.374Z,26.06
2018-08-11T17:12:38.498Z,26.12
2018-08-11T17:15:07.516Z,26.13
2018-08-11T17:17:36.164Z,25.72
2018-08-11T17:20:05.588Z,25.82
2018-08-11T17:22:34.322Z,25.85
2018-08-11T17:25:03.986Z,25.78
2018-08-11T17:27:33.199Z,25.80
2018-08-11T17:30:01.822Z,25.73
2018-08-11T17:32:30.748Z,25.66
2018-08-11T17:34:59.652Z,25.40
2018-08-11T17:37:28.296Z,25.26
2018-08-11T17:39:57.016Z,25.41
2018-08-11T17:42:25.916Z,25.31
2018-08-11T17:44:54.651Z,25.25
2018-08-11T17:47:23.573Z,25.16
2018-08-11T17:49:52.561Z,25.03
2018-08-11T17:52:21.128Z,24.98
2018-08-11T17:54:50.050Z,24.98
2018-08-11T17:57:19.046Z,24.94
2018-08-11T17:59:47.600Z,24.95
2018-08-11T18:02:16.356Z,24.89
2018-08-11T18:04:45.507Z,24.72
2018-08-11T18:07:14.527Z,24.68
2018-08-11T18:09:43.283Z,24.59
2018-08-11T18:12:12.123Z,24.47
2018-08-11T18:14:40.771Z,24.43
2018-08-11T18:17:09.403Z,24.35
2018-08-11T18:19:40.383Z,24.26
2018-08-11T18:22:09.051Z,24.15
2018-08-11T18:24:37.785Z,24.02
2018-08-11T18:27:06.760Z,23.94
2018-08-11T18:29:35.421Z,23.78
2018-08-11T18:32:04.140Z,23.72
2018-08-11T18:34:33.076Z,23.65
2018-08-11T18:37:01.777Z,23.56
2018-08-11T18:39:30.367Z,23.50
2018-08-11T18:41:59.080Z,23.35
2018-08-11T18:44:27.740Z,23.26
2018-08-11T18:46:56.300Z,23.12
2018-08-11T18:49:24.979Z,23.09
2018-08-11T18:51:53.733Z,23.00
2018-08-11T18:54:22.379Z,22.88
2018-08-11T18:56:51.061Z,22.74
2018-08-11T18:59:19.624Z,22.74
2018-08-11T19:01:49.042Z,22.63
2018-08-11T19:04:18.150Z,22.61
2018-08-11T19:06:47.089Z,22.54
2018-08-11T19:09:15.776Z,22.46
2018-08-11T19:11:44.539Z,22.39
2018-08-11T19:14:13.374Z,22.36
2018-08-11T19:16:42.244Z,22.30
2018-08-11T19:19:11.095Z,22.22
2018-08-11T19:21:39.812Z,22.15
2018-08-11T19:24:08.644Z,22.09
2018-08-11T19:26:37.505Z,22.02
2018-08-11T19:29:06.545Z,21.94
2018-08-11T19:31:35.324Z,21.91
2018-08-11T19:34:04.448Z,21.85
2018-08-11T19:36:33.128Z,21.81
2018-08-11T19:39:01.960Z,21.76
2018-08-11T19:41:30.695Z,21.70
2018-08-11T19:43:59.455Z,21.65
2018-08-11T19:46:28.347Z,21.60
2018-08-11T19:48:57.281Z,21.58
2018-08-11T19:51:25.883Z,21.49
2018-08-11T19:53:54.592Z,21.43
2018-08-11T19:56:23.378Z,21.37
2018-08-11T19:58:51.995Z,21.32
2018-08-11T20:01:20.728Z,21.24
2018-08-11T20:03:49.476Z,21.18
2018-08-11T20:06:18.319Z,21.12
2018-08-11T20:08:47.113Z,21.06
2018-08-11T20:11:16.322Z,21.00
2018-08-11T20:13:45.116Z,20.90
2018-08-11T20:16:13.715Z,20.85
2018-08-11T20:18:42.537Z,20.79
2018-08-11T20:21:11.403Z,20.75
2018-08-11T20:23:40.336Z,20.68
2018-08-11T20:26:09.000Z,20.64
2018-08-11T20:28:37.653Z,20.54
2018-08-11T20:31:06.338Z,20.47
2018-08-11T20:33:35.183Z,20.39
2018-08-11T20:36:03.984Z,20.35
2018-08-11T20:38:33.008Z,20.32
2018-08-11T20:41:02.484Z,20.27
2018-08-11T20:43:31.252Z,20.21
2018-08-11T20:46:00.102Z,20.16
2018-08-11T20:48:29.079Z,20.17
2018-08-11T20:50:57.822Z,20.10
2018-08-11T20:53:26.612Z,20.08
2018-08-11T20:55:55.391Z,20.01
2018-08-11T20:58:24.079Z,19.96
2018-08-11T21:00:52.736Z,19.95
2018-08-11T21:03:21.443Z,19.84
2018-08-11T21:05:51.376Z,19.74
2018-08-11T21:08:21.001Z,19.63
2018-08-11T21:10:51.041Z,19.58
2018-08-11T21:13:20.311Z,19.57
2018-08-11T21:15:49.056Z,19.52
2018-08-11T21:18:17.739Z,19.50
2018-08-11T21:20:46.491Z,19.47
2018-08-11T21:23:15.237Z,19.44
2018-08-11T21:25:43.925Z,19.40
2018-08-11T21:28:12.556Z,19.37
2018-08-11T21:30:41.791Z,19.33
2018-08-11T21:33:10.456Z,19.30
2018-08-11T21:35:39.226Z,19.25
2018-08-11T21:38:08.356Z,19.24
2018-08-11T21:40:42.160Z,19.21
2018-08-11T21:43:11.059Z,19.11
2018-08-11T21:45:39.889Z,19.05
2018-08-11T21:48:08.727Z,18.98
2018-08-11T21:50:37.632Z,18.94
2018-08-11T21:53:06.449Z,18.88
2018-08-11T21:55:35.387Z,18.83
2018-08-11T21:58:04.133Z,18.76
2018-08-11T22:00:36.576Z,18.74
2018-08-11T22:03:07.251Z,18.66
2018-08-11T22:05:36.359Z,18.61
2018-08-11T22:08:06.031Z,18.52
2018-08-11T22:10:35.688Z,18.48
2018-08-11T22:13:04.889Z,18.48
2018-08-11T22:15:35.080Z,18.39
2018-08-11T22:18:04.608Z,18.37
2018-08-11T22:20:34.713Z,18.29
2018-08-11T22:23:04.590Z,18.15
2018-08-11T22:25:33.211Z,18.17
2018-08-11T22:28:02.997Z,18.08
2018-08-11T22:30:32.644Z,18.06
2018-08-11T22:33:02.151Z,18.00
2018-08-11T22:35:32.074Z,17.97
2018-08-11T22:38:01.828Z,17.93
2018-08-11T22:40:30.712Z,17.87
2018-08-11T22:43:00.507Z,17.74
2018-08-11T22:45:29.321Z,17.71
2018-08-11T22:47:58.308Z,17.57
2018-08-11T22:50:27.302Z,17.69
2018-08-11T22:52:56.179Z,17.66
2018-08-11T22:55:25.359Z,17.58
2018-08-11T22:57:54.280Z,17.44
2018-08-11T23:00:23.264Z,17.47
2018-08-11T23:02:52.065Z,17.41
2018-08-11T23:05:21.859Z,17.33
2018-08-11T23:07:50.501Z,17.35
2018-08-11T23:10:19.623Z,17.33
2018-08-11T23:12:48.616Z,17.20
2018-08-11T23:15:20.268Z,17.09
2018-08-11T23:17:50.225Z,17.08
2018-08-11T23:20:19.401Z,16.82
2018-08-11T23:22:48.212Z,16.74
2018-08-11T23:25:17.917Z,16.50
2018-08-11T23:27:47.199Z,16.46
2018-08-11T23:30:18.221Z,16.54
2018-08-11T23:32:47.688Z,16.37
2018-08-11T23:35:16.762Z,16.40
2018-08-11T23:37:46.160Z,16.57
2018-08-11T23:40:15.772Z,16.55
2018-08-11T23:42:45.184Z,16.43
2018-08-11T23:45:16.017Z,16.31
2018-08-11T23:47:44.779Z,16.29
2018-08-11T23:50:14.483Z,16.19
2018-08-11T23:52:44.100Z,16.16
2018-08-11T23:55:14.211Z,16.05
2018-08-11T23:57:42.967Z,15.96
